Terminal Aerodrome Forecast
Issued by NWS Twin Cities, MN

Home | Current Version | Previous Version | Text Only | Print | Product List | Glossary On
Versions: 1 2 3 4 5 6 7 8 9 10 11 12 13 14 15 16
000
FTUS43 KMPX 231700
TAFEAU
TAF
KEAU 231730Z 2318/2418 13012KT P6SM BKN120
     FM232000 14012G20KT P6SM VCSH SCT070 BKN100
     FM232300 13012G19KT 6SM -RA SCT025 OVC050
     FM240700 11012G20KT 4SM -RA BR SCT012 OVC025
     FM241000 11012G20KT 2SM RA BR OVC007
     FM241600 12011G16KT 5SM -RA OVC010=

USA.gov is the U.S. government's official web portal to all federal, state and local government web resources and services.